Terminal Aerodrome Forecast
Issued by NWS

Home | Current Version | Previous Version | Text Only | Print | Product List | Glossary On
Versions: 1 2 3 4 5 6 7 8 9 10 11 12 13 14 15 16 17 18 19 20 21 22 23 24 25 26 27 28 29 30 31 32 33 34 35 36 37
000
FTAK31 PANC 200604 AAA
TAFASD
TAF AMD
PASD 200604Z 2006/2106 18011KT P6SM VCSH SCT020 BKN035
      TEMPO 2006/2009 2SM -SN BR BKN012
     FM201500 30012KT P6SM SCT050
     FM202000 32014G22KT P6SM VCSH SCT025 BKN040
      AMD LTD TO CLD VIS AND WIND=

USA.gov is the U.S. government's official web portal to all federal, state and local government web resources and services.